createdAt,value
2019-04-07T00:00:42.827Z,83.72
2019-04-07T00:03:10.542Z,83.77
2019-04-07T00:05:37.810Z,84.51
2019-04-07T00:08:04.817Z,84.13
2019-04-07T00:10:31.618Z,84.15
2019-04-07T00:12:58.423Z,83.35
2019-04-07T00:15:25.914Z,83.17
2019-04-07T00:17:54.305Z,83.04
2019-04-07T00:20:21.255Z,83.42
2019-04-07T00:22:49.001Z,83.45
2019-04-07T00:25:17.722Z,83.69
2019-04-07T00:27:44.414Z,84.01
2019-04-07T00:30:12.538Z,84.07
2019-04-07T00:32:39.249Z,83.78
2019-04-07T00:35:06.008Z,83.74
2019-04-07T00:37:33.704Z,84.05
2019-04-07T00:40:00.433Z,84.27
2019-04-07T00:42:27.533Z,84.47
2019-04-07T00:44:54.482Z,84.25
2019-04-07T00:47:21.781Z,84.44
2019-04-07T00:49:48.599Z,84.44
2019-04-07T00:52:17.315Z,85.27
2019-04-07T00:54:44.448Z,84.94
2019-04-07T00:57:11.023Z,85.39
2019-04-07T00:59:37.661Z,84.64
2019-04-07T01:02:04.427Z,84.70
2019-04-07T01:04:31.902Z,84.76
2019-04-07T01:06:59.152Z,83.96
2019-04-07T01:09:25.867Z,85.19
2019-04-07T01:11:52.448Z,85.48
2019-04-07T01:14:21.438Z,85.86
2019-04-07T01:16:48.991Z,85.22
2019-04-07T01:19:15.589Z,85.72
2019-04-07T01:21:42.357Z,85.98
2019-04-07T01:24:12.286Z,85.98
2019-04-07T01:26:39.644Z,85.89
2019-04-07T01:29:06.479Z,85.40
2019-04-07T01:31:33.367Z,85.64
2019-04-07T01:34:00.049Z,86.38
2019-04-07T01:36:28.337Z,86.39
2019-04-07T01:38:55.045Z,86.59
2019-04-07T01:41:51.056Z,86.34
2019-04-07T01:44:31.434Z,86.69
2019-04-07T01:50:28.589Z,86.72
2019-04-07T01:53:00.580Z,86.13
2019-04-07T01:55:52.881Z,85.85
2019-04-07T01:58:30.800Z,85.75
2019-04-07T02:01:23.100Z,85.45
2019-04-07T02:04:00.040Z,85.17
2019-04-07T02:06:36.554Z,85.84
2019-04-07T02:09:18.310Z,84.81
2019-04-07T02:12:03.508Z,85.44
2019-04-07T02:14:46.714Z,86.24
2019-04-07T02:17:20.995Z,86.43
2019-04-07T02:20:01.301Z,85.99
2019-04-07T02:22:39.315Z,86.14
2019-04-07T02:25:31.786Z,86.43
2019-04-07T02:28:07.527Z,86.24
2019-04-07T02:31:02.758Z,85.76
2019-04-07T02:33:39.333Z,85.18
2019-04-07T02:36:23.923Z,85.36
2019-04-07T02:39:02.939Z,85.52
2019-04-07T02:41:42.092Z,85.80
2019-04-07T02:44:27.818Z,85.91
2019-04-07T02:47:01.746Z,86.20
2019-04-07T02:49:39.289Z,86.56
2019-04-07T02:52:13.095Z,85.24
2019-04-07T02:54:55.851Z,86.47
2019-04-07T02:57:40.434Z,86.47
2019-04-07T03:00:22.363Z,86.43
2019-04-07T03:03:16.958Z,85.73
2019-04-07T03:05:54.287Z,85.48
2019-04-07T03:08:42.739Z,84.27
2019-04-07T03:11:42.825Z,86.35
2019-04-07T03:14:17.806Z,86.24
2019-04-07T03:16:59.970Z,84.75
2019-04-07T03:19:33.377Z,85.20
2019-04-07T03:22:20.598Z,85.13
2019-04-07T03:25:04.557Z,85.02
2019-04-07T03:27:53.589Z,85.10
2019-04-07T03:30:45.343Z,84.26
2019-04-07T03:33:31.881Z,84.91
2019-04-07T03:36:06.851Z,84.60
2019-04-07T03:38:48.135Z,84.66
2019-04-07T03:41:20.637Z,84.97
2019-04-07T03:43:54.990Z,85.26
2019-04-07T03:46:32.583Z,86.38
2019-04-07T03:49:11.297Z,85.55
2019-04-07T03:51:58.092Z,86.57
2019-04-07T03:54:43.413Z,87.20
2019-04-07T03:57:20.288Z,88.08
2019-04-07T04:00:06.623Z,88.35
2019-04-07T04:02:56.779Z,88.29
2019-04-07T04:05:34.809Z,88.27
2019-04-07T04:08:11.313Z,88.33
2019-04-07T04:10:45.400Z,89.08
2019-04-07T04:13:20.509Z,88.62
2019-04-07T04:15:57.092Z,89.02
2019-04-07T04:18:24.518Z,88.96
2019-04-07T04:20:52.875Z,88.74
2019-04-07T04:23:20.180Z,87.43
2019-04-07T04:25:47.068Z,87.82
2019-04-07T04:28:16.384Z,87.72
2019-04-07T04:30:44.114Z,87.04
2019-04-07T04:33:12.470Z,85.90
2019-04-07T04:35:39.164Z,85.87
2019-04-07T04:38:06.151Z,85.69
2019-04-07T04:40:33.196Z,86.49
2019-04-07T04:42:59.902Z,86.22
2019-04-07T04:45:27.525Z,85.47
2019-04-07T04:47:56.094Z,86.51
2019-04-07T04:50:23.704Z,88.24
2019-04-07T04:52:52.340Z,88.11
2019-04-07T04:55:20.418Z,88.50
2019-04-07T04:57:47.948Z,88.29
2019-04-07T05:00:15.835Z,87.36
2019-04-07T05:02:44.172Z,86.48
2019-04-07T05:05:11.209Z,84.76
2019-04-07T05:07:50.087Z,84.76
2019-04-07T05:10:07.997Z,85.14
2019-04-07T05:12:35.132Z,83.85
2019-04-07T05:15:01.964Z,83.96
2019-04-07T05:17:28.827Z,86.04
2019-04-07T05:19:55.520Z,85.72
2019-04-07T05:22:22.552Z,86.54
2019-04-07T05:24:50.559Z,86.77
2019-04-07T05:27:17.462Z,87.27
2019-04-07T05:29:44.691Z,85.30
2019-04-07T05:32:12.208Z,84.90
2019-04-07T05:34:42.328Z,85.38
2019-04-07T05:37:09.858Z,84.22
2019-04-07T05:39:37.216Z,84.22
2019-04-07T05:42:04.655Z,83.48
2019-04-07T05:44:32.016Z,83.08
2019-04-07T05:46:59.081Z,83.70
2019-04-07T05:49:25.833Z,82.65
2019-04-07T05:51:52.558Z,83.38
2019-04-07T05:54:20.769Z,85.43
2019-04-07T05:56:48.255Z,86.47
2019-04-07T05:59:15.656Z,85.48
2019-04-07T06:01:43.420Z,83.20
2019-04-07T06:04:14.355Z,83.65
2019-04-07T06:06:41.460Z,82.96
2019-04-07T06:09:08.053Z,82.27
2019-04-07T06:11:36.137Z,81.48
2019-04-07T06:14:03.191Z,80.21
2019-04-07T06:16:30.662Z,79.50
2019-04-07T06:18:57.763Z,78.57
2019-04-07T06:21:24.555Z,78.10
2019-04-07T06:23:59.404Z,78.36
2019-04-07T06:26:25.600Z,76.43
2019-04-07T06:28:57.385Z,75.12
2019-04-07T06:31:24.403Z,76.38
2019-04-07T06:33:49.974Z,72.47
2019-04-07T06:36:18.678Z,73.24
2019-04-07T06:38:51.238Z,73.19
2019-04-07T06:41:16.122Z,72.04
2019-04-07T06:43:47.967Z,71.33
2019-04-07T06:46:35.711Z,69.91
2019-04-07T06:49:38.101Z,69.12
2019-04-07T06:52:24.795Z,68.17
2019-04-07T06:55:00.562Z,67.81
2019-04-07T06:57:46.629Z,66.10
2019-04-07T07:00:36.511Z,65.23
2019-04-07T07:03:19.570Z,65.37
2019-04-07T07:06:08.544Z,63.31
2019-04-07T07:08:45.869Z,60.41
2019-04-07T07:11:30.028Z,61.47
2019-04-07T07:14:34.930Z,61.08
2019-04-07T07:17:16.966Z,59.71
2019-04-07T07:20:04.215Z,58.81
2019-04-07T07:22:45.982Z,59.68
2019-04-07T07:25:12.393Z,59.80
2019-04-07T07:27:41.594Z,58.91
2019-04-07T07:30:09.775Z,59.14
2019-04-07T07:32:37.399Z,58.25
2019-04-07T07:35:05.320Z,57.66
2019-04-07T07:37:33.363Z,57.24
2019-04-07T07:39:59.956Z,57.37
2019-04-07T07:42:26.811Z,56.10
2019-04-07T07:44:53.650Z,58.26
2019-04-07T07:47:22.535Z,56.58
2019-04-07T07:49:48.854Z,55.58
2019-04-07T07:52:18.558Z,54.97
2019-04-07T07:54:46.114Z,54.89
2019-04-07T07:57:13.375Z,54.67
2019-04-07T07:59:40.438Z,54.83
2019-04-07T08:02:07.583Z,55.55
2019-04-07T08:04:34.596Z,52.93
2019-04-07T08:07:02.598Z,52.06
2019-04-07T08:09:29.359Z,53.27
2019-04-07T08:11:56.153Z,52.62
2019-04-07T08:14:22.875Z,51.16
2019-04-07T08:16:52.391Z,48.67
2019-04-07T08:19:20.120Z,51.58
2019-04-07T08:21:50.322Z,52.39
2019-04-07T08:24:19.022Z,48.98
2019-04-07T08:26:45.939Z,47.88
2019-04-07T08:29:13.900Z,49.63
2019-04-07T08:31:41.030Z,47.27
2019-04-07T08:34:07.833Z,46.90
2019-04-07T08:36:34.857Z,49.41
2019-04-07T08:39:01.855Z,46.62
2019-04-07T08:41:30.126Z,43.64
2019-04-07T08:44:00.586Z,42.20
2019-04-07T08:46:32.283Z,42.95
2019-04-07T08:49:02.166Z,45.76
2019-04-07T08:51:31.663Z,40.94
2019-04-07T08:53:59.772Z,37.98
2019-04-07T08:56:26.898Z,38.62
2019-04-07T08:58:54.395Z,36.81
2019-04-07T09:01:21.846Z,39.35
2019-04-07T09:03:50.760Z,38.89
2019-04-07T09:06:17.419Z,38.31
2019-04-07T09:08:44.057Z,40.88
2019-04-07T09:11:13.180Z,37.76
2019-04-07T09:13:41.700Z,35.77
2019-04-07T09:16:28.025Z,35.33
2019-04-07T09:19:09.423Z,35.15
2019-04-07T09:21:50.246Z,36.07
2019-04-07T09:24:38.153Z,35.02
2019-04-07T09:27:23.571Z,33.60
2019-04-07T09:30:01.178Z,35.21
2019-04-07T09:32:57.846Z,32.78
2019-04-07T09:35:47.595Z,32.87
2019-04-07T09:38:33.396Z,34.54
2019-04-07T09:41:13.167Z,30.28
2019-04-07T09:44:05.620Z,32.33
2019-04-07T09:46:53.028Z,29.76
2019-04-07T09:49:56.620Z,30.32
2019-04-07T09:52:34.154Z,27.62
2019-04-07T09:55:16.695Z,31.85
2019-04-07T09:58:12.019Z,31.49
2019-04-07T10:00:46.615Z,31.39
2019-04-07T10:03:31.581Z,30.70
2019-04-07T10:06:18.925Z,32.67
2019-04-07T10:09:12.063Z,31.57
2019-04-07T10:12:00.414Z,31.60
2019-04-07T10:14:45.352Z,31.10
2019-04-07T10:17:30.042Z,31.09
2019-04-07T10:20:22.017Z,28.23
2019-04-07T10:22:58.684Z,30.34
2019-04-07T10:26:04.012Z,29.29
2019-04-07T10:28:51.470Z,29.36
2019-04-07T10:31:25.476Z,28.99
2019-04-07T10:34:06.154Z,27.73
2019-04-07T10:36:59.140Z,25.62
2019-04-07T10:39:49.752Z,28.83
2019-04-07T10:42:23.581Z,28.92
2019-04-07T10:44:58.743Z,29.66
2019-04-07T10:47:44.812Z,27.37
2019-04-07T10:50:43.852Z,24.97
2019-04-07T10:53:31.312Z,24.80
2019-04-07T10:56:04.473Z,24.70
2019-04-07T10:58:42.402Z,25.21
2019-04-07T11:01:22.924Z,23.98
2019-04-07T11:04:00.654Z,24.98
2019-04-07T11:07:06.450Z,23.74
2019-04-07T11:09:54.246Z,25.11
2019-04-07T11:12:39.836Z,26.07
2019-04-07T11:15:27.564Z,24.05
2019-04-07T11:18:17.494Z,23.85
2019-04-07T11:21:03.477Z,22.95
2019-04-07T11:23:39.197Z,21.69
2019-04-07T11:26:25.282Z,22.36
2019-04-07T11:29:08.521Z,23.69
2019-04-07T11:31:59.407Z,22.61
2019-04-07T11:35:04.911Z,24.28
2019-04-07T11:37:55.585Z,22.48
2019-04-07T11:40:52.201Z,23.40
2019-04-07T11:43:29.505Z,24.29
2019-04-07T11:46:18.762Z,22.74
2019-04-07T11:48:54.839Z,24.64
2019-04-07T11:51:29.228Z,28.32
2019-04-07T11:54:25.162Z,26.51
2019-04-07T11:57:15.387Z,25.78
2019-04-07T12:00:14.284Z,27.08
2019-04-07T12:02:54.473Z,26.77
2019-04-07T12:05:39.823Z,28.17
2019-04-07T12:08:18.572Z,28.69
2019-04-07T12:11:13.598Z,26.55
2019-04-07T12:13:59.757Z,25.82
2019-04-07T12:16:41.703Z,27.37
2019-04-07T12:19:22.810Z,27.87
2019-04-07T12:22:10.454Z,27.36
2019-04-07T12:25:00.732Z,25.66
2019-04-07T12:27:58.121Z,24.71
2019-04-07T12:30:48.808Z,25.27
2019-04-07T12:33:22.994Z,24.96
2019-04-07T12:35:59.085Z,25.96
2019-04-07T12:38:35.012Z,23.94
2019-04-07T12:41:23.026Z,22.93
2019-04-07T12:44:10.406Z,23.84
2019-04-07T12:46:50.983Z,24.86
2019-04-07T12:49:43.556Z,27.10
2019-04-07T12:52:17.375Z,27.57
2019-04-07T12:54:57.060Z,28.56
2019-04-07T12:57:30.933Z,28.95
2019-04-07T13:00:30.894Z,30.72
2019-04-07T13:03:08.814Z,31.81
2019-04-07T13:05:54.182Z,31.38
2019-04-07T13:08:40.704Z,33.11
2019-04-07T13:11:24.722Z,32.15
2019-04-07T13:14:03.767Z,34.86
2019-04-07T13:17:00.197Z,33.07
2019-04-07T13:19:43.814Z,33.43
2019-04-07T13:22:19.324Z,32.68
2019-04-07T13:25:14.329Z,33.70
2019-04-07T13:27:58.954Z,32.93
2019-04-07T13:30:50.024Z,32.57
2019-04-07T13:33:28.971Z,32.76
2019-04-07T13:36:22.556Z,33.74
2019-04-07T13:39:08.328Z,35.12
2019-04-07T13:41:55.721Z,34.86
2019-04-07T13:44:41.659Z,32.56
2019-04-07T13:47:28.752Z,33.84
2019-04-07T13:50:12.787Z,35.37
2019-04-07T13:53:05.627Z,32.61
2019-04-07T13:55:48.730Z,34.23
2019-04-07T13:58:35.708Z,34.66
2019-04-07T14:01:21.031Z,34.59
2019-04-07T14:04:16.723Z,34.82
2019-04-07T14:06:49.680Z,35.53
2019-04-07T14:09:35.362Z,34.44
2019-04-07T14:12:18.924Z,37.48
2019-04-07T14:15:00.215Z,36.80
2019-04-07T14:17:46.616Z,39.19
2019-04-07T14:20:24.463Z,35.39
2019-04-07T14:23:12.018Z,37.87
2019-04-07T14:25:47.061Z,34.21
2019-04-07T14:28:31.040Z,35.10
2019-04-07T14:31:07.639Z,35.54
2019-04-07T14:33:57.335Z,34.16
2019-04-07T14:36:39.205Z,35.13
2019-04-07T14:39:12.838Z,33.76
2019-04-07T14:42:04.604Z,34.46
2019-04-07T14:44:47.943Z,35.12
2019-04-07T14:47:41.427Z,35.40
2019-04-07T14:50:42.862Z,35.88
2019-04-07T14:53:45.398Z,40.57
2019-04-07T14:56:22.561Z,36.01
2019-04-07T14:58:58.561Z,36.16
2019-04-07T15:01:36.878Z,38.83
2019-04-07T15:04:05.143Z,35.71
2019-04-07T15:06:34.535Z,38.55
2019-04-07T15:09:10.185Z,37.68
2019-04-07T15:11:51.012Z,37.55
2019-04-07T15:14:18.092Z,36.88
2019-04-07T15:16:45.059Z,35.39
2019-04-07T15:19:11.704Z,37.09
2019-04-07T15:21:39.030Z,34.80
2019-04-07T15:24:07.217Z,35.25
2019-04-07T15:26:34.735Z,35.14
2019-04-07T15:29:04.679Z,36.36
2019-04-07T15:31:33.120Z,35.75
2019-04-07T15:34:06.362Z,36.54
2019-04-07T15:36:31.541Z,37.97
2019-04-07T15:38:59.547Z,37.20
2019-04-07T15:41:27.577Z,38.66
2019-04-07T15:43:55.266Z,39.57
2019-04-07T15:46:22.517Z,40.19
2019-04-07T15:48:49.858Z,39.54
2019-04-07T15:51:17.458Z,41.58
2019-04-07T15:53:49.768Z,39.93
2019-04-07T15:56:15.668Z,39.02
2019-04-07T15:58:41.952Z,41.54
2019-04-07T16:01:10.440Z,38.79
2019-04-07T16:03:38.793Z,39.26
2019-04-07T16:06:06.067Z,38.84
2019-04-07T16:08:33.726Z,39.03
2019-04-07T16:11:01.905Z,39.60
2019-04-07T16:13:29.238Z,39.21
2019-04-07T16:15:56.154Z,40.21
2019-04-07T16:18:23.253Z,43.11
2019-04-07T16:20:50.686Z,40.04
2019-04-07T16:23:19.267Z,42.14
2019-04-07T16:25:47.502Z,42.89
2019-04-07T16:28:16.033Z,42.25
2019-04-07T16:30:43.353Z,40.61
2019-04-07T16:33:10.082Z,44.13
2019-04-07T16:35:37.132Z,41.68
2019-04-07T16:38:05.211Z,43.11
2019-04-07T16:40:32.420Z,43.62
2019-04-07T16:43:09.552Z,44.15
2019-04-07T16:45:28.284Z,43.58
2019-04-07T16:47:55.059Z,43.42
2019-04-07T16:50:21.638Z,43.10
2019-04-07T16:52:48.528Z,45.91
2019-04-07T16:55:36.884Z,44.86
2019-04-07T16:58:04.573Z,46.06
2019-04-07T17:00:31.265Z,45.23
2019-04-07T17:02:57.753Z,46.99
2019-04-07T17:05:25.599Z,48.35
2019-04-07T17:07:54.827Z,48.67
2019-04-07T17:10:21.132Z,48.11
2019-04-07T17:12:49.589Z,47.40
2019-04-07T17:15:16.255Z,48.95
2019-04-07T17:17:43.462Z,49.90
2019-04-07T17:20:10.239Z,50.82
2019-04-07T17:22:38.209Z,49.83
2019-04-07T17:25:09.915Z,48.64
2019-04-07T17:27:40.885Z,49.66
2019-04-07T17:30:05.434Z,49.99
2019-04-07T17:32:35.829Z,50.21
2019-04-07T17:35:07.899Z,51.86
2019-04-07T17:37:37.856Z,50.88
2019-04-07T17:40:15.635Z,51.22
2019-04-07T17:42:50.769Z,50.50
2019-04-07T17:45:37.478Z,51.02
2019-04-07T17:48:23.342Z,50.49
2019-04-07T17:51:06.330Z,50.46
2019-04-07T17:53:49.585Z,50.34
2019-04-07T17:56:30.330Z,50.28
2019-04-07T17:59:22.071Z,53.13
2019-04-07T18:02:15.091Z,52.28
2019-04-07T18:05:04.441Z,51.95
2019-04-07T18:07:50.689Z,51.46
2019-04-07T18:10:29.487Z,52.59
2019-04-07T18:13:16.607Z,54.65
2019-04-07T18:16:01.692Z,54.29
2019-04-07T18:18:36.674Z,54.59
2019-04-07T18:21:13.407Z,56.60
2019-04-07T18:24:08.302Z,54.95
2019-04-07T18:26:53.675Z,56.22
2019-04-07T18:29:48.030Z,55.19
2019-04-07T18:32:43.113Z,56.85
2019-04-07T18:35:32.638Z,57.48
2019-04-07T18:38:17.386Z,56.38
2019-04-07T18:41:10.116Z,55.87
2019-04-07T18:43:57.818Z,55.37
2019-04-07T18:46:27.952Z,55.50
2019-04-07T18:49:18.035Z,53.85
2019-04-07T18:52:01.672Z,53.85
2019-04-07T18:54:39.934Z,53.50
2019-04-07T18:57:35.979Z,53.75
2019-04-07T19:00:42.319Z,55.05
2019-04-07T19:03:45.297Z,56.14
2019-04-07T19:06:31.259Z,55.39
2019-04-07T19:09:08.086Z,56.43
2019-04-07T19:11:47.229Z,56.60
2019-04-07T19:14:44.308Z,56.10
2019-04-07T19:17:27.267Z,57.66
2019-04-07T19:20:34.129Z,54.60
2019-04-07T19:23:18.465Z,53.53
2019-04-07T19:25:59.782Z,53.37
2019-04-07T19:28:49.762Z,54.09
2019-04-07T19:31:48.018Z,54.19
2019-04-07T19:34:32.812Z,56.71
2019-04-07T19:37:22.463Z,57.71
2019-04-07T19:40:04.341Z,56.45
2019-04-07T19:42:48.227Z,57.46
2019-04-07T19:45:32.994Z,57.82
2019-04-07T19:48:28.803Z,54.68
2019-04-07T19:51:14.288Z,55.23
2019-04-07T19:54:08.323Z,54.67
2019-04-07T19:56:42.444Z,56.84
2019-04-07T19:59:26.779Z,56.93
2019-04-07T20:02:13.433Z,56.03
2019-04-07T20:05:04.157Z,56.22
2019-04-07T20:07:50.824Z,55.09
2019-04-07T20:10:38.018Z,54.35
2019-04-07T20:13:20.000Z,55.59
2019-04-07T20:15:59.185Z,56.79
2019-04-07T20:18:37.400Z,57.38
2019-04-07T20:21:35.104Z,58.34
2019-04-07T20:24:11.275Z,58.32
2019-04-07T20:26:58.740Z,58.23
2019-04-07T20:29:44.762Z,60.46
2019-04-07T20:32:34.751Z,61.34
2019-04-07T20:35:19.713Z,60.61
2019-04-07T20:38:07.091Z,59.73
2019-04-07T20:40:59.919Z,58.97
2019-04-07T20:43:45.187Z,61.52
2019-04-07T20:46:23.800Z,58.23
2019-04-07T20:49:13.628Z,58.16
2019-04-07T20:52:16.995Z,58.95
2019-04-07T20:55:09.447Z,58.42
2019-04-07T20:58:14.608Z,56.10
2019-04-07T21:00:57.692Z,56.95
2019-04-07T21:03:45.075Z,56.66
2019-04-07T21:06:40.557Z,55.30
2019-04-07T21:09:21.562Z,54.57
2019-04-07T21:11:59.617Z,56.47
2019-04-07T21:14:45.348Z,56.94
2019-04-07T21:17:32.477Z,57.73
2019-04-07T21:20:15.575Z,57.93
2019-04-07T21:23:01.734Z,58.58
2019-04-07T21:25:43.346Z,58.86
2019-04-07T21:28:28.943Z,58.92
2019-04-07T21:31:03.412Z,57.15
2019-04-07T21:33:44.338Z,58.17
2019-04-07T21:36:30.071Z,59.39
2019-04-07T21:39:08.380Z,59.16
2019-04-07T21:42:00.497Z,59.77
2019-04-07T21:44:50.194Z,59.27
2019-04-07T21:47:58.002Z,57.89
2019-04-07T21:50:44.789Z,58.52
2019-04-07T21:53:41.035Z,60.06
2019-04-07T21:56:24.788Z,60.43
2019-04-07T21:59:07.745Z,59.84
2019-04-07T22:02:03.207Z,60.96
2019-04-07T22:04:50.626Z,62.07
2019-04-07T22:07:27.647Z,64.30
2019-04-07T22:09:58.847Z,64.58
2019-04-07T22:12:29.818Z,63.68
2019-04-07T22:14:56.289Z,63.57
2019-04-07T22:17:23.394Z,61.72
2019-04-07T22:19:50.212Z,62.57
2019-04-07T22:22:16.903Z,64.46
2019-04-07T22:24:44.835Z,64.23
2019-04-07T22:27:11.666Z,64.09
2019-04-07T22:29:38.372Z,64.69
2019-04-07T22:32:05.308Z,64.36
2019-04-07T22:34:33.781Z,65.64
2019-04-07T22:37:00.935Z,65.03
2019-04-07T22:39:29.795Z,64.46
2019-04-07T22:41:57.164Z,65.78
2019-04-07T22:44:24.761Z,65.88
2019-04-07T22:46:52.711Z,66.58
2019-04-07T22:49:19.839Z,67.02
2019-04-07T22:51:48.285Z,66.96
2019-04-07T22:54:16.726Z,67.38
2019-04-07T22:56:44.572Z,66.77
2019-04-07T22:59:12.794Z,66.74
2019-04-07T23:01:39.645Z,66.97
2019-04-07T23:04:07.105Z,67.65
2019-04-07T23:06:34.233Z,67.44
2019-04-07T23:09:01.550Z,67.67
2019-04-07T23:11:30.013Z,67.59
2019-04-07T23:13:56.747Z,67.78
2019-04-07T23:16:24.032Z,67.53
2019-04-07T23:18:52.080Z,67.58
2019-04-07T23:21:19.246Z,68.35
2019-04-07T23:23:46.233Z,69.59
2019-04-07T23:26:13.865Z,69.59
2019-04-07T23:28:40.577Z,69.54
2019-04-07T23:31:07.530Z,69.55
2019-04-07T23:33:34.780Z,69.84
2019-04-07T23:36:01.823Z,71.25
2019-04-07T23:38:28.943Z,71.25
2019-04-07T23:40:55.671Z,70.29
2019-04-07T23:43:22.440Z,70.40
2019-04-07T23:45:49.651Z,70.56
2019-04-07T23:48:17.984Z,70.53
2019-04-07T23:50:47.733Z,70.54
2019-04-07T23:53:50.807Z,71.54
2019-04-07T23:56:17.709Z,71.34
2019-04-07T23:58:45.559Z,71.45
